Station: Lameroo Aws

  Atmospheric Gas Attenuation - ITU Rec 676-11   --------------- db/100km ---------------
Date Time Temp RH % AH g/m3 Dew Point Wind Direction Speed kph Gust kph Barometer mB Rainfall Since 9am 24GHz 47GHz 76GHz 122GHz 134GHz 241GHz
15 01:10 8.7 97 8.39 8.2 22 24 1016.2 0.2 19.4 27.2 41.7 109.4 102.4 351.9
15 01:00 8.8 97 8.45 8.3 20 22 1016.1 0.2 19.5 27.3 41.9 110.0 103.1 354.3
15 00:50 8.8 97 8.45 8.3 22 24 1016 0.2 19.5 27.3 41.9 109.9 103.1 354.3
15 00:40 8.8 97 8.45 8.3 20 24 1016.1 0.2 19.5 27.3 41.9 110.0 103.1 354.3
15 00:30 8.8 97 8.45 8.3 19 22 1016.1 0 19.5 27.3 41.9 110.0 103.1 354.3
15 00:20 8.8 97 8.45 8.3 19 20 1016.3 0 19.5 27.3 41.9 110.0 103.2 354.4
15 00:10 8.9 97 8.5 8.4 19 20 1016.5 0 19.6 27.3 42.1 110.4 103.7 356.5
15 00:00 9 97 8.55 8.5 15 19 1016.5 0 19.7 27.4 42.2 110.9 104.3 358.5
14 23:50 9 97 8.55 8.5 19 20 1016.5 0 19.7 27.4 42.2 110.9 104.3 358.5
14 23:40 9 97 8.55 8.5 15 19 1016.6 0 19.7 27.4 42.2 110.9 104.3 358.5
14 23:30 9.1 97 8.61 8.6 17 20 1016.6 0 19.8 27.5 42.4 111.4 105.0 361.0
14 23:20 9.2 97 8.66 8.7 20 22 1016.5 0 19.9 27.5 42.6 111.8 105.6 363.0
14 23:10 9.2 97 8.66 8.7 20 24 1016.4 0 19.9 27.5 42.6 111.8 105.6 363.0
14 23:00 9.2 97 8.66 8.7 22 24 1016.3 0 19.9 27.5 42.6 111.8 105.6 362.9
14 22:50 9.2 96 8.58 8.6 24 26 1016.2 0 19.8 27.4 42.2 110.9 104.4 358.9
14 22:40 9.3 97 8.72 8.8 24 26 1016.1 0 20.1 27.6 42.8 112.3 106.3 365.4
14 22:30 9.3 96 8.63 8.7 19 20 1016.1 0 19.9 27.4 42.4 111.3 105.0 360.9
14 22:20 9.3 96 8.63 8.7 20 24 1016.1 0 19.9 27.4 42.4 111.3 105.0 360.9
14 22:10 9.3 96 8.63 8.7 26 28 1016 0 19.9 27.4 42.4 111.3 105.0 360.9
14 22:00 9.4 96 8.69 8.8 26 28 1016.1 0 20.0 27.5 42.6 111.8 105.7 363.4
14 21:50 9.4 96 8.69 8.8 26 30 1016 0 20.0 27.5 42.6 111.8 105.7 363.4
14 21:40 9.4 96 8.69 8.8 24 28 1016 0 20.0 27.5 42.6 111.8 105.7 363.4
14 21:30 9.4 96 8.69 8.8 30 33 1015.9 0 20.0 27.5 42.6 111.8 105.7 363.3
14 21:20 9.5 96 8.74 8.9 28 30 1015.9 0 20.1 27.5 42.8 112.3 106.3 365.3
14 21:10 9.5 95 8.65 8.7 24 28 1015.9 0 19.9 27.4 42.4 111.2 105.0 360.9
14 21:00 9.6 95 8.7 8.8 26 30 1016 0 20.0 27.4 42.5 111.7 105.6 362.9
14 20:50 9.6 95 8.7 8.8 30 32 1015.9 0 20.0 27.4 42.5 111.6 105.5 362.9
14 20:40 9.7 95 8.76 8.9 26 32 1015.9 0 20.1 27.5 42.7 112.2 106.3 365.4
14 20:30 9.8 95 8.82 9 24 30 1016 0 20.3 27.6 42.9 112.7 107.0 367.9
14 20:20 9.8 95 8.82 9 26 30 1015.9 0 20.3 27.6 42.9 112.7 107.0 367.9
14 20:10 9.8 95 8.82 9 22 26 1015.9 0 20.3 27.6 42.9 112.7 107.0 367.9
14 20:00 9.8 95 8.82 9 24 30 1015.8 0 20.3 27.6 42.9 112.7 107.0 367.8
14 19:50 9.9 93 8.69 8.9 22 28 1015.8 0 20.0 27.3 42.3 111.1 105.0 361.0
14 19:40 9.9 93 8.69 8.9 26 28 1015.7 0 20.0 27.3 42.3 111.1 105.0 361.0
14 19:30 9.9 95 8.87 9.1 24 32 1015.6 0 20.4 27.6 43.1 113.1 107.5 369.8
14 19:20 9.9 95 8.87 9.1 28 32 1015.5 0 20.4 27.6 43.1 113.1 107.5 369.7
14 19:10 9.8 95 8.82 9 24 28 1015.4 0 20.3 27.6 42.9 112.7 106.9 367.7
14 19:00 9.8 95 8.82 9 24 32 1015.1 0 20.3 27.5 42.9 112.6 106.9 367.6
14 18:50 9.9 93 8.69 8.9 26 28 1015 0 20.0 27.3 42.3 111.0 104.9 360.7
14 18:40 9.9 95 8.87 9.1 26 32 1014.9 0 20.4 27.6 43.0 113.0 107.4 369.6
14 18:30 10 95 8.93 9.2 24 30 1014.8 0 20.5 27.7 43.2 113.6 108.1 372.0
14 18:20 10 93 8.74 9 22 26 1014.9 0 20.1 27.3 42.4 111.4 105.5 362.7
14 18:10 10 93 8.74 9 20 24 1014.9 0 20.1 27.3 42.4 111.4 105.5 362.7
14 18:00 10.1 93 8.8 9.1 20 26 1014.9 0 20.2 27.4 42.6 112.0 106.2 365.2
14 17:50 10.1 93 8.8 9.1 22 24 1014.7 0 20.2 27.4 42.6 111.9 106.2 365.1
14 17:40 10.2 93 8.85 9.2 20 22 1014.5 0 20.3 27.4 42.8 112.3 106.7 367.0
14 17:30 10.3 93 8.91 9.3 22 26 1014.4 0 20.4 27.5 43.0 112.9 107.4 369.5
14 17:20 10.4 93 8.97 9.4 24 28 1014.3 0 20.6 27.6 43.2 113.4 108.1 371.9
14 17:10 10.5 93 9.02 9.5 19 22 1014.3 0 20.7 27.6 43.3 113.8 108.6 373.9
14 17:00 10.5 93 9.02 9.4 22 26 1014 0 20.7 27.6 43.3 113.8 108.6 373.8
14 16:50 10.6 93 9.08 9.5 22 26 1013.9 0 20.8 27.7 43.5 114.3 109.3 376.2
14 16:40 10.7 93 9.14 9.6 24 26 1013.9 0 20.9 27.8 43.7 114.8 110.0 378.7
14 16:30 10.9 92 9.15 9.6 22 26 1013.7 0 20.9 27.7 43.6 114.6 109.8 378.1
14 16:20 11 92 9.21 9.7 24 28 1013.5 0 21.0 27.8 43.8 115.2 110.5 380.5
14 16:10 11.2 90 9.12 9.7 30 32 1013.3 0 20.8 27.5 43.3 113.8 109.0 375.1
14 16:00 11.7 90 9.41 10.1 26 28 1013.4 0 21.4 27.9 44.3 116.4 112.3 386.9
14 15:50 12.2 90 9.71 10.6 24 26 1013.3 0 22.1 28.2 45.3 119.0 115.8 399.0
14 15:40 12.3 90 9.77 10.8 22 26 1013.4 0 22.2 28.3 45.5 119.6 116.5 401.5
14 15:30 12 90 9.59 10.5 22 24 1013.5 0 21.8 28.1 44.9 118.0 114.4 394.2
14 15:20 12 90 9.59 10.5 22 26 1013.5 0 21.8 28.1 44.9 118.0 114.4 394.2
14 15:10 12.2 90 9.71 10.7 20 22 1013.4 0 22.1 28.2 45.3 119.0 115.8 399.0
14 15:00 12.3 90 9.77 10.7 20 26 1013.4 0 22.2 28.3 45.5 119.6 116.5 401.5
14 14:50 12.6 89 9.85 10.8 20 28 1013.3 0 22.3 28.4 45.6 120.0 117.1 403.8
14 14:40 13.6 86 10.12 11.3 13 15 1013.4 0 22.9 28.5 46.2 121.5 119.4 411.8
14 14:30 13.6 85 10 11.1 13 15 1013.4 0 22.6 28.3 45.7 120.2 117.7 405.9
14 14:20 13.5 86 10.06 11.2 15 15 1013.5 0 22.7 28.4 46.0 121.0 118.7 409.4
14 14:10 13.5 86 10.06 11.2 11 11 1013.6 0 22.7 28.4 46.0 121.0 118.7 409.5
14 14:00 13.5 86 10.06 11.2 11 13 1013.6 0 22.7 28.4 46.0 121.0 118.7 409.5
14 13:50 13.5 85 9.94 11 11 13 1013.7 0 22.5 28.2 45.5 119.7 117.0 403.6
14 13:40 13.4 85 9.88 10.9 15 15 1013.8 0 22.4 28.2 45.3 119.2 116.4 401.3
14 13:30 13.3 86 9.94 11.1 15 17 1013.9 0 22.5 28.3 45.6 120.0 117.4 404.7
14 13:20 13.2 88 10.1 11.2 15 19 1013.9 0 22.8 28.6 46.4 122.0 119.8 413.1
14 13:10 13.4 86 10 11.2 15 17 1014 0 22.6 28.4 45.8 120.6 118.1 407.2
14 13:00 13.3 90 10.4 11.7 17 20 1013.9 0 23.5 29.1 47.6 125.3 123.8 427.4
14 12:50 12.4 90 9.83 10.9 19 22 1014 0 22.3 28.4 45.7 120.2 117.2 404.1
14 12:40 12.1 90 9.65 10.6 19 22 1014.2 0 21.9 28.2 45.1 118.6 115.2 396.8
14 12:30 12.1 90 9.65 10.6 20 22 1014.3 0 21.9 28.2 45.1 118.6 115.2 396.9
14 12:20 11.8 92 9.68 10.5 24 28 1014.3 0 22.0 28.4 45.4 119.4 116.0 399.9
14 12:10 11.4 92 9.44 10.1 22 28 1014.4 0 21.5 28.1 44.6 117.3 113.3 390.1
14 12:00 11.6 91 9.46 10.2 26 32 1014.6 0 21.5 28.1 44.6 117.2 113.3 390.2
14 11:50 11.3 93 9.49 10.2 30 33 1014.9 0 21.6 28.2 44.9 118.1 114.2 393.3
14 11:40 10.7 92 9.04 9.4 26 28 1015.3 0 20.7 27.6 43.3 113.9 108.7 374.2
14 11:30 10.7 93 9.14 9.6 28 32 1015.3 0 20.9 27.8 43.8 115.0 110.1 379.1
14 11:20 10.6 93 9.08 9.6 26 32 1015.5 0 20.8 27.8 43.6 114.5 109.5 376.7
14 11:10 10.2 93 8.85 9.2 28 30 1015.6 0 20.3 27.5 42.8 112.5 106.8 367.4
14 11:00 10 95 8.93 9.2 28 32 1015.7 0 20.5 27.7 43.3 113.7 108.2 372.3
14 10:50 9.9 95 8.87 9.1 30 35 1015.9 0 20.4 27.6 43.1 113.2 107.5 369.9
14 10:40 9.7 95 8.76 8.9 32 35 1015.9 0 20.1 27.5 42.7 112.2 106.3 365.4
14 10:30 9.5 96 8.74 8.9 30 33 1016 0 20.1 27.5 42.8 112.3 106.3 365.4
14 10:20 9.3 96 8.63 8.7 28 30 1016.1 0 19.9 27.4 42.4 111.3 105.0 360.9
14 10:10 9.1 96 8.52 8.5 28 32 1016 0 19.6 27.3 42.0 110.3 103.7 356.4
14 10:00 8.9 96 8.41 8.3 26 30 1016 0 19.4 27.2 41.7 109.3 102.4 351.9
14 09:50 8.6 96 8.25 8 28 30 1016.1 0 19.1 27.0 41.1 108.0 100.6 345.4
14 09:40 8.5 96 8.2 7.9 24 28 1016.2 0 19.0 26.9 41.0 107.5 100.0 343.4
14 09:30 8.3 96 8.09 7.7 26 28 1016.2 0 18.8 26.8 40.6 106.6 98.7 338.9
14 09:20 8.2 96 8.04 7.6 28 32 1016.3 0 18.7 26.7 40.5 106.1 98.2 336.9
14 09:10 8.1 96 7.99 7.5 22 26 1016.5 0 18.5 26.7 40.3 105.7 97.6 334.9
14 09:00 8 96 7.94 7.4 20 26 1016.4 0 18.4 26.6 40.2 105.3 97.0 332.9
14 08:50 8 96 7.94 7.4 20 26 1016.3 9.4 18.4 26.6 40.1 105.3 97.0 332.9
14 08:40 7.9 96 7.89 7.3 24 28 1016.2 9.4 18.3 26.6 40.0 104.8 96.4 330.8

Last Refresh: 15-Jun-2024 01:18:42

Bureau of Meteorology